Marina Del Rey, California
Current Conditions -  °F | °C
As of 7:51 AM on Thursday 27 Nov 2014 (Local Time) from KSMO Reporting Station
Clear Clear  
Wind Chill: 74°   Ceiling: Unl
Heat Index: 74°   Visibility: 10mi
Dew Point: 19°   Wind: 6mph
Humidity: 13%   Direction: 20°NNE
Pressure: 30.1"   Gusts: NA
Location:  33.98°N, 118.45°W
Report Text: KSMO 271551Z 02005KT 10SM CLR 23/M07 A3010 RMK AO2 SLP191 T02331072
Loading
Personal Weather Stations






























Interactive Weather Map New forecast layout! Learn more

10-Day Weather Forecast

Advertisements
Track Severe Weather on mobile